createdAt,value
2022-11-14T00:00:59.669Z,101825.03
2022-11-14T00:03:26.063Z,101813.63
2022-11-14T00:05:52.489Z,101819.84
2022-11-14T00:08:22.084Z,101825.47
2022-11-14T00:10:50.070Z,101820.41
2022-11-14T00:13:18.527Z,101829.91
2022-11-14T00:15:50.232Z,101827.88
2022-11-14T00:18:18.256Z,101823.09
2022-11-14T00:20:48.542Z,101815.47
2022-11-14T00:23:15.108Z,101820.09
2022-11-14T00:25:41.668Z,101817.44
2022-11-14T00:28:08.885Z,101807.69
2022-11-14T00:30:35.350Z,101815.91
2022-11-14T00:33:01.797Z,101814.47
2022-11-14T00:35:28.279Z,101807.63
2022-11-14T00:37:54.733Z,101793.09
2022-11-14T00:40:21.167Z,101798.09
2022-11-14T00:42:47.649Z,101785.13
2022-11-14T00:45:15.432Z,101770.56
2022-11-14T00:47:41.833Z,101776.13
2022-11-14T00:50:09.718Z,101762.56
2022-11-14T00:52:36.330Z,101762.44
2022-11-14T00:55:02.939Z,101757.44
2022-11-14T00:57:29.371Z,101767.44
2022-11-14T00:59:55.907Z,101762.81
2022-11-14T01:02:23.150Z,101749.13
2022-11-14T01:04:49.560Z,101743.75
2022-11-14T01:07:16.007Z,101741.19
2022-11-14T01:09:42.408Z,101748.13
2022-11-14T01:12:08.859Z,101744.53
2022-11-14T01:14:35.341Z,101733.28
2022-11-14T01:17:01.754Z,101735.59
2022-11-14T01:19:28.141Z,101731.00
2022-11-14T01:21:54.588Z,101720.13
2022-11-14T01:24:21.001Z,101729.59
2022-11-14T01:26:47.439Z,101724.31
2022-11-14T01:29:14.050Z,101716.16
2022-11-14T01:31:40.477Z,101715.91
2022-11-14T01:34:06.895Z,101710.66
2022-11-14T01:36:33.325Z,101709.09
2022-11-14T01:38:59.727Z,101714.59
2022-11-14T01:41:26.117Z,101701.88
2022-11-14T01:43:52.560Z,101700.28
2022-11-14T01:46:30.439Z,101701.78
2022-11-14T01:49:02.890Z,101694.88
2022-11-14T01:51:38.356Z,101685.53
2022-11-14T01:54:14.762Z,101689.72
2022-11-14T01:56:48.714Z,101679.78
2022-11-14T01:59:23.530Z,101677.16
2022-11-14T02:01:52.058Z,101672.41
2022-11-14T02:04:24.110Z,101673.03
2022-11-14T02:06:54.033Z,101667.75
2022-11-14T02:09:20.878Z,101661.78
2022-11-14T02:11:47.577Z,101652.63
2022-11-14T02:14:14.104Z,101649.47
2022-11-14T02:16:48.287Z,101647.56
2022-11-14T02:19:41.149Z,101633.66
2022-11-14T02:22:07.550Z,101629.06
2022-11-14T02:24:33.954Z,101623.47
2022-11-14T02:27:00.967Z,101621.41
2022-11-14T02:29:27.397Z,101614.53
2022-11-14T02:31:53.793Z,101615.03
2022-11-14T02:34:20.307Z,101610.59
2022-11-14T02:36:46.734Z,101599.78
2022-11-14T02:39:13.156Z,101599.16
2022-11-14T02:41:39.582Z,101604.81
2022-11-14T02:44:05.996Z,101598.56
2022-11-14T02:46:32.410Z,101592.00
2022-11-14T02:48:58.838Z,101595.44
2022-11-14T02:51:25.263Z,101590.06
2022-11-14T02:53:51.828Z,101583.28
2022-11-14T02:56:18.292Z,101578.56
2022-11-14T02:58:44.675Z,101586.53
2022-11-14T03:01:20.934Z,101580.06
2022-11-14T03:03:47.992Z,101570.06
2022-11-14T03:06:14.486Z,101561.03
2022-11-14T03:08:40.882Z,101563.84
2022-11-14T03:11:08.936Z,101565.28
2022-11-14T03:13:35.950Z,101565.41
2022-11-14T03:16:11.018Z,101553.34
2022-11-14T03:18:37.747Z,101559.47
2022-11-14T03:21:10.214Z,101553.38
2022-11-14T03:23:37.204Z,101561.47
2022-11-14T03:26:06.308Z,101556.00
2022-11-14T03:28:33.114Z,101548.75
2022-11-14T03:30:59.540Z,101545.53
2022-11-14T03:33:25.962Z,101536.84
2022-11-14T03:35:52.864Z,101537.16
2022-11-14T03:38:23.002Z,101525.84
2022-11-14T03:40:52.100Z,101536.78
2022-11-14T03:43:20.449Z,101541.28
2022-11-14T03:45:47.303Z,101533.97
2022-11-14T03:48:14.025Z,101540.84
2022-11-14T03:50:41.372Z,101524.56
2022-11-14T03:53:08.369Z,101531.25
2022-11-14T03:55:34.999Z,101524.97
2022-11-14T03:58:01.730Z,101516.44
2022-11-14T04:00:28.833Z,101521.47
2022-11-14T04:02:56.553Z,101517.13
2022-11-14T04:05:23.942Z,101509.00
2022-11-14T04:07:50.766Z,101514.53
2022-11-14T04:10:18.159Z,101518.59
2022-11-14T04:12:52.225Z,101500.66
2022-11-14T04:15:19.822Z,101496.59
2022-11-14T04:17:46.991Z,101501.25
2022-11-14T04:20:14.883Z,101490.06
2022-11-14T04:22:41.316Z,101492.28
2022-11-14T04:25:09.119Z,101482.66
2022-11-14T04:27:35.650Z,101485.03
2022-11-14T04:30:02.438Z,101476.19
2022-11-14T04:32:28.935Z,101470.38
2022-11-14T04:34:55.364Z,101470.66
2022-11-14T04:37:21.798Z,101474.72
2022-11-14T04:39:48.239Z,101465.53
2022-11-14T04:42:14.693Z,101461.69
2022-11-14T04:44:41.152Z,101468.44
2022-11-14T04:47:07.821Z,101455.28
2022-11-14T04:49:34.229Z,101443.56
2022-11-14T04:52:00.679Z,101456.16
2022-11-14T04:54:27.291Z,101451.78
2022-11-14T04:56:53.757Z,101446.94
2022-11-14T04:59:21.219Z,101454.94
2022-11-14T05:01:47.929Z,101455.66
2022-11-14T05:04:14.680Z,101450.50
2022-11-14T05:06:41.198Z,101456.34
2022-11-14T05:09:07.673Z,101453.69
2022-11-14T05:11:34.111Z,101450.25
2022-11-14T05:14:00.702Z,101450.88
2022-11-14T05:16:27.136Z,101442.34
2022-11-14T05:18:54.466Z,101456.16
2022-11-14T05:21:20.973Z,101442.69
2022-11-14T05:23:47.392Z,101445.94
2022-11-14T05:26:16.984Z,101452.59
2022-11-14T05:28:43.461Z,101440.78
2022-11-14T05:31:13.603Z,101444.84
2022-11-14T05:33:40.087Z,101435.50
2022-11-14T05:36:11.926Z,101433.59
2022-11-14T05:38:38.539Z,101431.59
2022-11-14T05:41:07.046Z,101430.66
2022-11-14T05:43:33.551Z,101425.28
2022-11-14T05:46:05.123Z,101414.78
2022-11-14T05:48:32.345Z,101425.91
2022-11-14T05:51:01.070Z,101425.03
2022-11-14T05:53:28.486Z,101429.97
2022-11-14T05:55:55.367Z,101424.44
2022-11-14T05:58:22.479Z,101424.81
2022-11-14T06:00:53.891Z,101418.63
2022-11-14T06:03:20.856Z,101419.66
2022-11-14T06:05:47.246Z,101427.41
2022-11-14T06:08:13.707Z,101426.59
2022-11-14T06:10:40.203Z,101425.81
2022-11-14T06:13:06.613Z,101418.06
2022-11-14T06:15:33.047Z,101433.28
2022-11-14T06:17:59.468Z,101425.88
2022-11-14T06:20:25.893Z,101432.44
2022-11-14T06:22:55.198Z,101426.22
2022-11-14T06:25:21.590Z,101420.63
2022-11-14T06:27:47.978Z,101426.47
2022-11-14T06:30:14.476Z,101430.72
2022-11-14T06:32:41.221Z,101429.19
2022-11-14T06:35:08.349Z,101423.09
2022-11-14T06:37:37.917Z,101430.56
2022-11-14T06:40:04.719Z,101429.91
2022-11-14T06:42:31.103Z,101426.31
2022-11-14T06:44:57.533Z,101433.47
2022-11-14T06:47:23.932Z,101438.34
2022-11-14T06:49:50.487Z,101433.41
2022-11-14T06:52:16.915Z,101437.13
2022-11-14T06:54:43.338Z,101455.28
2022-11-14T06:57:09.814Z,101445.31
2022-11-14T06:59:36.240Z,101442.88
2022-11-14T07:02:02.761Z,101446.44
2022-11-14T07:04:29.197Z,101442.34
2022-11-14T07:06:55.613Z,101440.91
2022-11-14T07:09:22.168Z,101448.81
2022-11-14T07:11:48.621Z,101439.94
2022-11-14T07:14:15.017Z,101453.44
2022-11-14T07:16:41.485Z,101446.94
2022-11-14T07:19:09.744Z,101437.19
2022-11-14T07:21:36.827Z,101440.97
2022-11-14T07:24:03.536Z,101440.34
2022-11-14T07:26:33.006Z,101440.19
2022-11-14T07:29:02.382Z,101434.50
2022-11-14T07:31:29.705Z,101439.78
2022-11-14T07:33:56.183Z,101433.13
2022-11-14T07:36:23.350Z,101433.66
2022-11-14T07:38:49.798Z,101427.81
2022-11-14T07:41:16.482Z,101417.66
2022-11-14T07:43:43.356Z,101425.88
2022-11-14T07:46:14.697Z,101419.00
2022-11-14T07:48:41.485Z,101408.81
2022-11-14T07:51:14.006Z,101411.97
2022-11-14T07:53:40.577Z,101415.06
2022-11-14T07:56:11.087Z,101405.44
2022-11-14T07:58:39.189Z,101405.88
2022-11-14T08:01:07.694Z,101405.88
2022-11-14T08:03:34.748Z,101405.75
2022-11-14T08:06:06.920Z,101398.00
2022-11-14T08:08:33.601Z,101401.09
2022-11-14T08:11:00.836Z,101393.53
2022-11-14T08:13:33.121Z,101399.78
2022-11-14T08:16:12.314Z,101395.47
2022-11-14T08:18:39.937Z,101399.16
2022-11-14T08:21:06.775Z,101393.31
2022-11-14T08:23:33.260Z,101395.59
2022-11-14T08:26:00.051Z,101391.94
2022-11-14T08:28:26.838Z,101402.47
2022-11-14T08:30:58.305Z,101404.72
2022-11-14T08:33:24.727Z,101388.81
2022-11-14T08:35:51.147Z,101396.13
2022-11-14T08:38:17.663Z,101387.88
2022-11-14T08:40:44.066Z,101390.91
2022-11-14T08:43:11.643Z,101392.22
2022-11-14T08:45:38.112Z,101387.66
2022-11-14T08:48:05.692Z,101390.78
2022-11-14T08:50:32.362Z,101385.28
2022-11-14T08:52:58.932Z,101383.81
2022-11-14T08:55:25.692Z,101372.84
2022-11-14T08:57:53.574Z,101368.44
2022-11-14T09:00:20.409Z,101359.25
2022-11-14T09:02:47.100Z,101355.78
2022-11-14T09:05:13.575Z,101349.53
2022-11-14T09:07:40.050Z,101353.16
2022-11-14T09:10:07.400Z,101349.72
2022-11-14T09:12:34.279Z,101354.50
2022-11-14T09:15:00.837Z,101354.41
2022-11-14T09:17:27.259Z,101351.97
2022-11-14T09:19:54.099Z,101353.97
2022-11-14T09:22:20.578Z,101342.00
2022-11-14T09:24:47.744Z,101340.75
2022-11-14T09:27:14.349Z,101334.88
2022-11-14T09:29:41.013Z,101342.06
2022-11-14T09:32:07.631Z,101348.53
2022-11-14T09:34:34.089Z,101334.91
2022-11-14T09:37:00.517Z,101328.56
2022-11-14T09:39:26.958Z,101326.19
2022-11-14T09:42:02.488Z,101325.53
2022-11-14T09:45:10.518Z,101330.91
2022-11-14T09:47:46.313Z,101327.19
2022-11-14T09:50:26.015Z,101322.28
2022-11-14T09:52:56.536Z,101320.59
2022-11-14T09:55:30.991Z,101315.47
2022-11-14T09:58:02.766Z,101318.13
2022-11-14T10:00:55.941Z,101325.16
2022-11-14T10:03:43.500Z,101334.31
2022-11-14T10:06:28.352Z,101326.19
2022-11-14T10:09:19.867Z,101324.25
2022-11-14T10:11:58.402Z,101322.69
2022-11-14T10:14:31.120Z,101322.59
2022-11-14T10:17:16.067Z,101330.41
2022-11-14T10:20:00.225Z,101315.34
2022-11-14T10:22:58.652Z,101316.13
2022-11-14T10:25:40.861Z,101315.25
2022-11-14T10:28:40.723Z,101309.66
2022-11-14T10:31:38.158Z,101302.53
2022-11-14T10:34:27.996Z,101306.50
2022-11-14T10:37:15.452Z,101296.94
2022-11-14T10:39:49.906Z,101304.44
2022-11-14T10:42:21.417Z,101306.59
2022-11-14T10:44:56.185Z,101304.41
2022-11-14T10:47:25.350Z,101308.50
2022-11-14T10:49:58.211Z,101295.03
2022-11-14T10:52:41.525Z,101294.06
2022-11-14T10:55:16.541Z,101298.06
2022-11-14T10:57:45.499Z,101298.25
2022-11-14T11:00:20.395Z,101292.03
2022-11-14T11:02:57.726Z,101288.25
2022-11-14T11:05:29.814Z,101292.63
2022-11-14T11:08:44.984Z,101289.47
2022-11-14T11:11:23.691Z,101285.91
2022-11-14T11:13:55.691Z,101271.44
2022-11-14T11:16:24.350Z,101266.91
2022-11-14T11:18:51.372Z,101256.97
2022-11-14T11:21:20.885Z,101261.31
2022-11-14T11:23:54.595Z,101260.13
2022-11-14T11:26:29.452Z,101254.66
2022-11-14T11:29:11.149Z,101243.09
2022-11-14T11:31:58.455Z,101249.06
2022-11-14T11:34:32.101Z,101246.81
2022-11-14T11:37:26.811Z,101238.59
2022-11-14T11:39:56.378Z,101226.41
2022-11-14T11:42:58.771Z,101222.03
2022-11-14T11:45:19.110Z,101228.13
2022-11-14T11:48:08.867Z,101236.22
2022-11-14T11:50:36.534Z,101224.97
2022-11-14T11:53:15.070Z,101229.78
2022-11-14T11:55:44.897Z,101230.84
2022-11-14T11:58:29.904Z,101225.56
2022-11-14T12:00:56.458Z,101227.81
2022-11-14T12:03:25.735Z,101214.19
2022-11-14T12:06:10.645Z,101209.97
2022-11-14T12:08:43.098Z,101205.63
2022-11-14T12:11:19.032Z,101201.16
2022-11-14T12:13:51.505Z,101204.94
2022-11-14T12:16:45.920Z,101196.47
2022-11-14T12:19:35.537Z,101192.25
2022-11-14T12:22:32.887Z,101194.38
2022-11-14T12:25:21.161Z,101177.63
2022-11-14T12:28:08.955Z,101180.47
2022-11-14T12:30:37.944Z,101168.91
2022-11-14T12:33:31.323Z,101172.78
2022-11-14T12:36:00.804Z,101171.22
2022-11-14T12:38:34.853Z,101173.72
2022-11-14T12:41:02.041Z,101175.44
2022-11-14T12:43:33.188Z,101165.41
2022-11-14T12:46:08.585Z,101161.97
2022-11-14T12:48:52.868Z,101146.34
2022-11-14T12:51:25.576Z,101151.44
2022-11-14T12:53:55.903Z,101148.84
2022-11-14T12:56:31.586Z,101153.13
2022-11-14T12:59:09.006Z,101171.81
2022-11-14T13:01:54.045Z,101197.28
2022-11-14T13:04:46.198Z,101231.66
2022-11-14T13:07:15.590Z,101296.22
2022-11-14T13:10:13.728Z,101328.63
2022-11-14T13:13:29.400Z,101369.56
2022-11-14T13:16:16.820Z,101391.81
2022-11-14T13:19:14.178Z,101357.88
2022-11-14T13:22:12.203Z,101331.69
2022-11-14T13:25:01.152Z,101328.81
2022-11-14T13:27:45.560Z,101333.03
2022-11-14T13:30:16.497Z,101337.28
2022-11-14T13:32:42.946Z,101321.91
2022-11-14T13:35:15.995Z,101306.44
2022-11-14T13:37:52.396Z,101317.78
2022-11-14T13:40:28.581Z,101298.50
2022-11-14T13:43:22.637Z,101302.41
2022-11-14T13:46:04.706Z,101301.44
2022-11-14T13:48:47.671Z,101287.44
2022-11-14T13:51:41.770Z,101315.16
2022-11-14T13:54:17.143Z,101299.09
2022-11-14T13:57:01.376Z,101281.34
2022-11-14T13:59:55.138Z,101295.19
2022-11-14T14:02:21.477Z,101277.75
2022-11-14T14:05:20.789Z,101269.31
2022-11-14T14:08:06.421Z,101271.63
2022-11-14T14:11:03.125Z,101279.81
2022-11-14T14:13:55.750Z,101264.91
2022-11-14T14:16:33.779Z,101249.00
2022-11-14T14:19:16.211Z,101251.56
2022-11-14T14:21:57.237Z,101245.66
2022-11-14T14:24:46.733Z,101233.25
2022-11-14T14:27:33.718Z,101226.94
2022-11-14T14:30:19.693Z,101213.47
2022-11-14T14:33:07.650Z,101201.13
2022-11-14T14:35:41.539Z,101197.50
2022-11-14T14:38:12.933Z,101179.81
2022-11-14T14:40:42.018Z,101168.44
2022-11-14T14:43:22.759Z,101174.78
2022-11-14T14:45:53.846Z,101167.09
2022-11-14T14:48:27.195Z,101164.03
2022-11-14T14:50:56.147Z,101163.69
2022-11-14T14:53:25.917Z,101153.28
2022-11-14T14:56:04.180Z,101140.81
2022-11-14T14:58:32.851Z,101133.09
2022-11-14T15:01:27.067Z,101125.81
2022-11-14T15:04:02.572Z,101123.72
2022-11-14T15:06:34.074Z,101119.69
2022-11-14T15:09:09.686Z,101110.25
2022-11-14T15:11:40.013Z,101098.50
2022-11-14T15:14:10.654Z,101093.03
2022-11-14T15:16:37.269Z,101077.75
2022-11-14T15:19:04.842Z,101059.72
2022-11-14T15:21:31.255Z,101049.75
2022-11-14T15:24:02.243Z,101052.59
2022-11-14T15:26:31.490Z,101046.75
2022-11-14T15:29:13.594Z,101034.63
2022-11-14T15:31:58.783Z,101016.56
2022-11-14T15:34:33.857Z,101030.34
2022-11-14T15:37:08.506Z,101022.63
2022-11-14T15:39:34.985Z,101017.22
2022-11-14T15:42:17.789Z,101019.19
2022-11-14T15:44:45.210Z,101010.97
2022-11-14T15:47:17.823Z,101004.19
2022-11-14T15:50:05.264Z,100989.78
2022-11-14T15:52:40.964Z,100978.16
2022-11-14T15:55:17.648Z,100963.38
2022-11-14T15:57:51.676Z,100967.69
2022-11-14T16:00:22.906Z,100957.13
2022-11-14T16:02:59.085Z,100964.22
2022-11-14T16:05:29.245Z,100979.28
2022-11-14T16:07:56.094Z,100982.97
2022-11-14T16:10:24.670Z,100980.06
2022-11-14T16:12:52.579Z,100996.94
2022-11-14T16:15:20.152Z,100985.59
2022-11-14T16:17:48.675Z,100983.16
2022-11-14T16:20:17.283Z,100998.25
2022-11-14T16:22:44.391Z,101007.94
2022-11-14T16:25:28.070Z,101010.63
2022-11-14T16:27:54.526Z,101011.97
2022-11-14T16:30:23.157Z,101014.25
2022-11-14T16:32:51.221Z,101016.56
2022-11-14T16:35:23.320Z,101016.41
2022-11-14T16:37:50.306Z,101011.56
2022-11-14T16:40:20.541Z,101010.28
2022-11-14T16:42:47.365Z,101018.00
2022-11-14T16:45:14.299Z,101030.72
2022-11-14T16:47:40.883Z,101015.16
2022-11-14T16:50:07.949Z,101012.22
2022-11-14T16:52:34.359Z,101006.63
2022-11-14T16:55:00.778Z,101010.78
2022-11-14T16:57:27.412Z,101004.06
2022-11-14T17:00:03.230Z,101012.59
2022-11-14T17:02:29.663Z,101000.34
2022-11-14T17:04:56.078Z,100998.63
2022-11-14T17:07:23.107Z,100995.94
2022-11-14T17:09:49.680Z,100986.03
2022-11-14T17:12:16.135Z,100990.81
2022-11-14T17:14:43.129Z,100997.50
2022-11-14T17:17:09.724Z,100997.03
2022-11-14T17:19:36.204Z,100990.19
2022-11-14T17:22:02.666Z,101001.00
2022-11-14T17:24:31.544Z,101009.97
2022-11-14T17:26:58.388Z,101002.97
2022-11-14T17:29:24.846Z,101000.22
2022-11-14T17:31:51.254Z,101002.78
2022-11-14T17:34:17.785Z,100996.31
2022-11-14T17:36:44.359Z,100994.72
2022-11-14T17:39:10.871Z,101009.06
2022-11-14T17:41:37.346Z,100996.41
2022-11-14T17:44:05.365Z,100996.06
2022-11-14T17:46:32.141Z,100998.78
2022-11-14T17:48:59.209Z,100984.78
2022-11-14T17:51:25.683Z,100988.34
2022-11-14T17:53:52.651Z,100986.63
2022-11-14T17:56:24.174Z,100980.16
2022-11-14T17:58:53.006Z,100980.50
2022-11-14T18:01:23.086Z,100969.81
2022-11-14T18:03:50.301Z,100969.97
2022-11-14T18:06:19.261Z,100976.09
2022-11-14T18:08:46.484Z,100965.63
2022-11-14T18:11:14.807Z,100971.44
2022-11-14T18:13:41.336Z,100975.09
2022-11-14T18:16:13.861Z,100968.25
2022-11-14T18:18:40.613Z,100973.31
2022-11-14T18:21:13.840Z,100983.03
2022-11-14T18:23:40.502Z,100993.69
2022-11-14T18:26:15.189Z,100986.47
2022-11-14T18:28:42.478Z,100988.66
2022-11-14T18:31:13.417Z,100991.09
2022-11-14T18:33:41.452Z,100983.16
2022-11-14T18:36:11.975Z,100989.13
2022-11-14T18:38:38.889Z,100983.25
2022-11-14T18:41:12.898Z,100989.53
2022-11-14T18:43:39.806Z,100980.97
2022-11-14T18:46:18.393Z,100985.50
2022-11-14T18:48:47.276Z,100981.09
2022-11-14T18:51:23.078Z,100980.44
2022-11-14T18:53:51.455Z,100981.66
2022-11-14T18:56:20.551Z,100979.75
2022-11-14T18:58:48.277Z,100987.38
2022-11-14T19:01:24.067Z,100989.19
2022-11-14T19:03:52.027Z,100979.56
2022-11-14T19:06:20.043Z,100980.84
2022-11-14T19:08:46.769Z,100981.06
2022-11-14T19:11:34.797Z,100978.09
2022-11-14T19:14:03.568Z,100974.75
2022-11-14T19:16:31.695Z,100974.75
2022-11-14T19:18:59.179Z,100965.22
2022-11-14T19:21:26.071Z,100955.94
2022-11-14T19:23:55.788Z,100959.44
2022-11-14T19:26:23.403Z,100949.00
2022-11-14T19:28:50.028Z,100950.75
2022-11-14T19:31:17.016Z,100948.03
2022-11-14T19:33:44.882Z,100943.63
2022-11-14T19:36:32.335Z,100940.44
2022-11-14T19:39:03.696Z,100927.94
2022-11-14T19:41:31.016Z,100918.84
2022-11-14T19:43:59.761Z,100910.75
2022-11-14T19:46:28.749Z,100900.41
2022-11-14T19:49:00.130Z,100904.19
2022-11-14T19:51:28.124Z,100893.53
2022-11-14T19:53:55.674Z,100884.00
2022-11-14T19:56:23.361Z,100895.88
2022-11-14T19:58:51.548Z,100891.75
2022-11-14T20:01:19.491Z,100887.91
2022-11-14T20:03:55.064Z,100880.78
2022-11-14T20:06:25.005Z,100889.00
2022-11-14T20:08:52.121Z,100888.41
2022-11-14T20:11:19.283Z,100893.53
2022-11-14T20:13:46.228Z,100899.53
2022-11-14T20:16:15.466Z,100888.69
2022-11-14T20:18:45.601Z,100887.31
2022-11-14T20:21:14.294Z,100886.53
2022-11-14T20:23:40.917Z,100872.97
2022-11-14T20:26:11.209Z,100866.28
2022-11-14T20:28:39.662Z,100865.75
2022-11-14T20:31:09.810Z,100865.59
2022-11-14T20:33:38.218Z,100858.75
2022-11-14T20:36:06.461Z,100861.41
2022-11-14T20:38:33.269Z,100858.16
2022-11-14T20:41:00.831Z,100862.63
2022-11-14T20:43:28.855Z,100860.25
2022-11-14T20:46:03.788Z,100866.19
2022-11-14T20:48:32.329Z,100870.78
2022-11-14T20:51:22.844Z,100864.03
2022-11-14T20:53:51.231Z,100857.28
2022-11-14T20:56:18.516Z,100857.41
2022-11-14T20:58:46.480Z,100854.47
2022-11-14T21:01:14.223Z,100854.69
2022-11-14T21:03:40.801Z,100854.47
2022-11-14T21:06:10.907Z,100851.31
2022-11-14T21:08:38.216Z,100847.16
2022-11-14T21:11:08.169Z,100845.38
2022-11-14T21:13:54.771Z,100845.66
2022-11-14T21:16:22.349Z,100838.81
2022-11-14T21:18:52.686Z,100845.13
2022-11-14T21:21:20.969Z,100855.56
2022-11-14T21:23:47.576Z,100854.22
2022-11-14T21:26:25.267Z,100841.03
2022-11-14T21:29:04.003Z,100844.75
2022-11-14T21:31:45.332Z,100842.00
2022-11-14T21:34:14.076Z,100839.25
2022-11-14T21:36:45.580Z,100836.69
2022-11-14T21:39:14.656Z,100844.09
2022-11-14T21:41:42.477Z,100834.59
2022-11-14T21:44:12.883Z,100830.75
2022-11-14T21:46:39.353Z,100817.16
2022-11-14T21:49:05.761Z,100821.19
2022-11-14T21:51:32.205Z,100825.09
2022-11-14T21:53:58.767Z,100833.41
2022-11-14T21:56:27.997Z,100845.22
2022-11-14T21:59:13.697Z,100892.78
2022-11-14T22:02:09.443Z,100913.16
2022-11-14T22:04:36.684Z,100902.13
2022-11-14T22:07:07.958Z,100922.06
2022-11-14T22:09:35.184Z,100921.06
2022-11-14T22:12:02.016Z,100923.31
2022-11-14T22:14:29.423Z,100925.88
2022-11-14T22:16:56.077Z,100929.50
2022-11-14T22:19:22.578Z,100933.97
2022-11-14T22:21:49.037Z,100940.41
2022-11-14T22:24:15.442Z,100943.63
2022-11-14T22:26:41.941Z,100942.59
2022-11-14T22:29:08.729Z,100942.09
2022-11-14T22:31:36.610Z,100945.59
2022-11-14T22:34:03.470Z,100936.00
2022-11-14T22:36:29.926Z,100941.56
2022-11-14T22:38:56.946Z,100933.22
2022-11-14T22:41:33.212Z,100939.41
2022-11-14T22:44:00.497Z,100931.91
2022-11-14T22:46:27.514Z,100942.59
2022-11-14T22:48:54.716Z,100941.03
2022-11-14T22:51:26.393Z,100943.97
2022-11-14T22:53:54.691Z,100952.06
2022-11-14T22:56:22.742Z,100944.09
2022-11-14T22:58:49.231Z,100930.72
2022-11-14T23:01:29.846Z,100933.34
2022-11-14T23:04:01.868Z,100942.66
2022-11-14T23:06:30.217Z,100937.41
2022-11-14T23:08:56.706Z,100951.09
2022-11-14T23:11:26.382Z,100960.59
2022-11-14T23:13:54.948Z,100965.63
2022-11-14T23:16:23.779Z,100972.41
2022-11-14T23:18:51.168Z,100965.44
2022-11-14T23:21:23.434Z,100957.38
2022-11-14T23:24:01.091Z,100960.28
2022-11-14T23:26:29.105Z,100960.13
2022-11-14T23:28:56.044Z,100958.28
2022-11-14T23:31:23.543Z,100965.53
2022-11-14T23:33:53.250Z,100965.97
2022-11-14T23:36:20.037Z,100956.09
2022-11-14T23:38:46.847Z,100955.84
2022-11-14T23:41:19.201Z,100947.94
2022-11-14T23:43:46.401Z,100950.00
2022-11-14T23:46:13.624Z,100960.66
2022-11-14T23:48:40.214Z,100951.16
2022-11-14T23:51:07.037Z,100939.50
2022-11-14T23:53:33.658Z,100935.41
2022-11-14T23:56:02.204Z,100925.47
2022-11-14T23:58:29.184Z,100917.09
